Time;durP1;ratioP1;P1;durP2;ratioP2;P2;SDS_P1;SDS_P2;PMS_P1;PMS_P2;Temp;Humidity;BMP_temperature;BMP_pressure;BME280_temperature;BME280_humidity;BME280_pressure;Samples;Min_cycle;Max_cycle;Signal;HPM_P1;HPM_P2
2022/01/31 00:01:18;;;;;;;19.95;5.03;;;;;;;2.76;100.00;101309.50;4904035;29;20061;-79
2022/01/31 00:03:46;;;;;;;28.73;6.22;;;;;;;2.75;100.00;101293.00;4925858;29;20039;-79
2022/01/31 00:06:15;;;;;;;24.52;6.30;;;;;;;2.75;100.00;101276.50;4915050;28;20036;-81
2022/01/31 00:08:44;;;;;;;24.23;5.45;;;;;;;2.77;100.00;101256.66;4895298;29;20036;-81
2022/01/31 00:11:13;;;;;;;30.10;6.57;;;;;;;2.77;100.00;101248.84;4916622;29;20078;-79
2022/01/31 00:13:45;;;;;;;24.85;5.78;;;;;;;2.79;100.00;101242.84;4907007;29;20062;-81
2022/01/31 00:16:20;;;;;;;20.85;5.55;;;;;;;2.80;100.00;101229.03;4906875;29;20058;-80
2022/01/31 00:18:48;;;;;;;33.75;5.70;;;;;;;2.82;100.00;101223.91;4919039;29;20053;-79
2022/01/31 00:21:19;;;;;;;21.33;5.93;;;;;;;2.83;100.00;101210.03;4912852;29;20058;-80
2022/01/31 00:23:47;;;;;;;28.15;6.40;;;;;;;2.81;100.00;101193.47;4919902;29;20044;-80
2022/01/31 00:26:15;;;;;;;19.10;6.35;;;;;;;2.82;100.00;101188.34;4911104;29;20062;-80
2022/01/31 00:28:44;;;;;;;23.30;5.68;;;;;;;2.83;100.00;101178.81;4923222;29;20389;-81
2022/01/31 00:31:12;;;;;;;30.10;6.60;;;;;;;2.83;100.00;101160.59;4895330;29;20056;-79
2022/01/31 00:33:41;;;;;;;23.27;6.03;;;;;;;2.84;100.00;101145.03;4870256;29;20044;-79
2022/01/31 00:36:10;;;;;;;30.33;5.03;;;;;;;2.84;100.00;101141.56;4920394;28;20042;-81
2022/01/31 00:38:38;;;;;;;28.20;5.88;;;;;;;2.84;100.00;101124.22;4946386;28;20052;-80
2022/01/31 00:41:07;;;;;;;23.08;5.05;;;;;;;2.83;100.00;101122.41;4901486;29;20489;-80
2022/01/31 00:43:41;;;;;;;27.75;5.90;;;;;;;2.84;100.00;101100.78;4926192;28;20471;-80
2022/01/31 00:46:12;;;;;;;28.75;5.05;;;;;;;2.84;100.00;101092.09;4895384;29;20051;-80
2022/01/31 00:48:45;;;;;;;19.55;4.65;;;;;;;2.81;100.00;101076.34;4890104;29;20047;-80
2022/01/31 00:51:14;;;;;;;24.33;5.40;;;;;;;2.82;100.00;101053.00;4905781;29;20083;-80
2022/01/31 00:53:43;;;;;;;27.58;5.78;;;;;;;2.82;100.00;101032.16;4907596;29;20036;-80
2022/01/31 00:56:12;;;;;;;19.65;4.70;;;;;;;2.83;100.00;101028.72;4915679;29;20043;-81
2022/01/31 00:58:41;;;;;;;19.67;5.22;;;;;;;2.82;100.00;101016.56;4897965;29;20044;-80
2022/01/31 01:01:12;;;;;;;24.52;6.05;;;;;;;2.82;100.00;101003.53;4884421;29;20083;-81
2022/01/31 01:03:41;;;;;;;18.33;5.20;;;;;;;2.80;100.00;100988.69;4876784;29;20051;-80
2022/01/31 01:06:13;;;;;;;24.17;5.43;;;;;;;2.80;100.00;100973.06;4885529;29;20051;-82
2022/01/31 01:08:41;;;;;;;17.77;4.82;;;;;;;2.83;100.00;100965.38;4934824;28;20051;-79
2022/01/31 01:11:09;;;;;;;24.95;4.85;;;;;;;2.83;100.00;100954.97;4913950;29;20059;-81
2022/01/31 01:13:38;;;;;;;19.63;5.22;;;;;;;2.82;100.00;100951.50;4925060;29;20520;-80
2022/01/31 01:16:06;;;;;;;22.35;5.05;;;;;;;2.83;100.00;100928.94;4925291;29;20043;-80
2022/01/31 01:18:35;;;;;;;22.95;5.70;;;;;;;2.83;100.00;100929.81;4874649;29;22641;-79
2022/01/31 01:21:04;;;;;;;24.45;4.97;;;;;;;2.82;100.00;100917.66;4886426;29;20402;-80
2022/01/31 01:23:32;;;;;;;33.05;6.72;;;;;;;2.83;100.00;100915.94;4931830;28;20208;-80
2022/01/31 01:26:03;;;;;;;29.15;6.90;;;;;;;2.84;100.00;100904.69;4903234;29;20048;-80
2022/01/31 01:28:40;;;;;;;21.60;7.05;;;;;;;2.83;100.00;100884.69;4928094;29;20044;-80
2022/01/31 01:31:09;;;;;;;23.20;7.03;;;;;;;2.84;100.00;100878.66;4921260;29;20055;-82
2022/01/31 01:33:42;;;;;;;23.77;6.85;;;;;;;2.84;100.00;100870.88;4854910;29;20055;-80
2022/01/31 01:36:11;;;;;;;27.15;6.78;;;;;;;2.83;100.00;100869.09;4927749;29;20046;-81
2022/01/31 01:38:40;;;;;;;26.55;7.80;;;;;;;2.83;100.00;100850.88;4883447;29;20043;-81
2022/01/31 01:41:08;;;;;;;22.15;7.25;;;;;;;2.82;100.00;100843.91;4903980;29;20056;-79
2022/01/31 01:43:40;;;;;;;17.60;6.75;;;;;;;2.80;100.00;100825.63;4879934;29;20048;-80
2022/01/31 01:46:09;;;;;;;29.42;6.65;;;;;;;2.77;100.00;100816.81;4931426;28;20533;-80
2022/01/31 01:48:38;;;;;;;24.05;7.55;;;;;;;2.74;100.00;100807.19;4884330;29;20039;-80
2022/01/31 01:51:12;;;;;;;26.88;9.23;;;;;;;2.73;100.00;100798.50;4919765;29;20047;-81
2022/01/31 01:53:40;;;;;;;28.90;8.80;;;;;;;2.71;100.00;100781.94;4894044;29;20540;-79
2022/01/31 01:56:10;;;;;;;23.30;8.32;;;;;;;2.68;100.00;100774.03;4921490;29;20047;-79
2022/01/31 01:58:42;;;;;;;21.65;7.55;;;;;;;2.64;100.00;100755.66;4918040;29;20519;-80
2022/01/31 02:01:12;;;;;;;24.58;8.55;;;;;;;2.61;100.00;100748.66;4923799;29;20378;-80
2022/01/31 02:03:59;;;;;;;24.60;7.97;;;;;;;2.58;100.00;100719.94;4915029;29;20206;-80
2022/01/31 02:06:34;;;;;;;20.90;9.52;;;;;;;2.57;100.00;100706.88;4874496;29;20052;-81
2022/01/31 02:09:05;;;;;;;21.73;9.40;;;;;;;2.55;100.00;100696.41;4936890;28;20047;-79
2022/01/31 02:11:35;;;;;;;25.17;9.32;;;;;;;2.51;100.00;100691.94;4881858;29;20063;-80
2022/01/31 02:14:05;;;;;;;22.05;10.18;;;;;;;2.49;100.00;100685.78;4871831;29;20056;-80
2022/01/31 02:17:08;;;;;;;22.30;10.45;;;;;;;2.45;100.00;100676.13;4908334;29;20056;-80
2022/01/31 02:19:44;;;;;;;30.33;11.48;;;;;;;2.44;100.00;100658.75;4921395;29;20166;-79
2022/01/31 02:22:16;;;;;;;27.83;11.20;;;;;;;2.41;100.00;100643.06;4898224;29;20048;-80
2022/01/31 02:24:47;;;;;;;25.92;11.75;;;;;;;2.39;100.00;100642.13;4887056;29;20052;-81
2022/01/31 02:27:29;;;;;;;24.48;12.10;;;;;;;2.34;100.00;100627.25;4880484;29;20052;-81
2022/01/31 02:29:59;;;;;;;21.55;12.10;;;;;;;2.34;100.00;100611.66;4904817;29;20334;-80
2022/01/31 02:32:31;;;;;;;32.45;12.70;;;;;;;2.32;100.00;100613.28;4872624;29;20044;-81
2022/01/31 02:35:04;;;;;;;24.33;12.20;;;;;;;2.31;100.00;100589.88;4893094;29;20056;-80
2022/01/31 02:37:33;;;;;;;27.20;12.52;;;;;;;2.28;100.00;100585.44;4889194;29;20052;-81
2022/01/31 02:40:13;;;;;;;30.35;13.05;;;;;;;2.26;100.00;100574.09;4894373;29;20040;-80
2022/01/31 02:42:42;;;;;;;22.02;12.57;;;;;;;2.24;100.00;100567.09;4894355;29;20265;-80
2022/01/31 02:45:13;;;;;;;24.38;13.02;;;;;;;2.24;100.00;100559.28;4900802;29;20044;-81
2022/01/31 02:47:50;;;;;;;30.83;13.20;;;;;;;2.22;100.00;100554.03;4891909;29;20044;-82
2022/01/31 02:50:20;;;;;;;19.35;12.30;;;;;;;2.21;100.00;100546.19;4909194;29;20063;-80
2022/01/31 02:52:59;;;;;;;23.30;13.02;;;;;;;2.16;100.00;100534.78;4874342;29;20159;-82
2022/01/31 02:55:28;;;;;;;24.38;13.55;;;;;;;2.14;100.00;100529.53;4891699;29;20414;-80
2022/01/31 02:57:57;;;;;;;20.85;12.48;;;;;;;2.13;100.00;100525.16;4897440;29;20252;-80
2022/01/31 03:00:27;;;;;;;19.50;12.57;;;;;;;2.10;100.00;100522.47;4903199;29;20259;-80
2022/01/31 03:03:13;;;;;;;25.02;12.80;;;;;;;2.06;100.00;100504.97;4902592;29;20048;-80
2022/01/31 03:05:42;;;;;;;16.13;11.30;;;;;;;2.03;100.00;100487.59;4901764;29;20048;-79
2022/01/31 03:08:12;;;;;;;29.88;14.00;;;;;;;2.03;100.00;100479.78;4890467;29;20041;-79
2022/01/31 03:10:41;;;;;;;19.05;11.90;;;;;;;2.00;100.00;100473.59;4902570;29;20043;-80
2022/01/31 03:13:11;;;;;;;19.52;12.82;;;;;;;1.94;100.00;100464.78;4860364;29;20501;-79
2022/01/31 03:15:49;;;;;;;22.55;13.00;;;;;;;1.91;100.00;100453.38;4877824;29;20040;-80
2022/01/31 03:18:36;;;;;;;18.63;12.68;;;;;;;1.90;100.00;100457.72;4873659;29;20109;-79
2022/01/31 03:21:05;;;;;;;20.65;13.10;;;;;;;1.89;100.00;100432.59;4880083;29;20053;-79
2022/01/31 03:23:34;;;;;;;24.38;13.43;;;;;;;1.90;100.00;100417.88;4883609;29;20063;-79
2022/01/31 03:26:03;;;;;;;22.55;13.25;;;;;;;1.91;100.00;100414.41;4917418;29;20047;-80
2022/01/31 03:28:32;;;;;;;22.35;14.90;;;;;;;1.93;100.00;100411.06;4901035;28;20038;-79
2022/01/31 03:31:00;;;;;;;22.92;14.77;;;;;;;1.96;100.00;100405.06;4924679;28;20408;-79
2022/01/31 03:33:30;;;;;;;18.00;14.35;;;;;;;1.99;100.00;100389.56;4909481;28;20073;-79
2022/01/31 03:35:59;;;;;;;21.15;15.45;;;;;;;2.02;100.00;100391.38;4905830;29;20039;-80
2022/01/31 03:38:28;;;;;;;23.95;14.65;;;;;;;2.04;100.00;100384.50;4903954;29;20436;-79
2022/01/31 03:40:56;;;;;;;20.83;14.73;;;;;;;2.06;100.00;100370.72;4905679;28;20505;-80
2022/01/31 03:43:25;;;;;;;24.65;14.65;;;;;;;2.11;100.00;100363.06;4916560;28;20182;-78
2022/01/31 03:45:54;;;;;;;19.52;16.30;;;;;;;2.12;100.00;100359.63;4905299;28;20047;-81
2022/01/31 03:48:25;;;;;;;23.60;16.00;;;;;;;2.17;100.00;100346.75;4910642;28;20051;-81
2022/01/31 03:51:00;;;;;;;27.00;17.08;;;;;;;2.20;100.00;100336.47;4925649;29;20043;-81
2022/01/31 03:53:31;;;;;;;22.05;14.38;;;;;;;2.24;100.00;100326.19;4934226;28;20087;-81
2022/01/31 03:56:00;;;;;;;20.27;12.60;;;;;;;2.27;100.00;100330.56;4921093;28;20124;-79
2022/01/31 03:58:36;;;;;;;22.40;14.23;;;;;;;2.31;100.00;100315.13;4896714;29;20050;-79
2022/01/31 04:01:13;;;;;;;22.55;13.73;;;;;;;2.37;100.00;100303.13;4930492;28;20054;-79
2022/01/31 04:03:41;;;;;;;23.05;13.55;;;;;;;2.40;100.00;100298.91;4904504;28;20051;-79
2022/01/31 04:06:10;;;;;;;20.27;14.10;;;;;;;2.42;100.00;100289.44;4928194;28;20254;-79
2022/01/31 04:08:38;;;;;;;19.65;13.52;;;;;;;2.46;100.00;100287.78;4909265;29;20400;-79
2022/01/31 04:11:07;;;;;;;23.88;14.05;;;;;;;2.49;100.00;100275.72;4906225;29;20054;-81
2022/01/31 04:13:37;;;;;;;19.15;12.77;;;;;;;2.53;100.00;100264.59;4917908;29;20058;-79
2022/01/31 04:16:06;;;;;;;21.85;14.30;;;;;;;2.55;100.00;100256.78;4920501;28;20560;-81
2022/01/31 04:18:35;;;;;;;23.50;12.15;;;;;;;2.61;100.00;100243.06;4949423;28;20043;-79
2022/01/31 04:21:03;;;;;;;19.25;11.10;;;;;;;2.63;100.00;100244.88;4911512;29;20116;-79
2022/01/31 04:23:32;;;;;;;21.42;11.40;;;;;;;2.69;100.00;100250.25;4903987;29;20055;-80
2022/01/31 04:26:10;;;;;;;20.60;11.48;;;;;;;2.76;100.00;100253.00;4938470;28;20039;-79
2022/01/31 04:28:51;;;;;;;19.20;10.40;;;;;;;2.80;100.00;100247.00;4917641;29;20062;-79
2022/01/31 04:33:49;;;;;;;23.67;9.02;;;;;;;2.96;100.00;100243.09;4932200;28;20515;-80
2022/01/31 04:36:18;;;;;;;23.52;7.75;;;;;;;3.05;100.00;100222.47;4919669;29;20752;-79
2022/01/31 04:38:48;;;;;;;15.15;4.95;;;;;;;3.16;100.00;100212.28;4901951;28;20051;-80
2022/01/31 04:41:16;;;;;;;11.15;3.35;;;;;;;3.27;100.00;100206.50;4906540;29;20039;-81
2022/01/31 04:43:47;;;;;;;20.42;3.70;;;;;;;3.35;100.00;100204.09;4928184;29;20054;-80
2022/01/31 04:46:16;;;;;;;11.48;2.70;;;;;;;3.44;100.00;100201.69;4939278;28;20050;-81
2022/01/31 04:48:44;;;;;;;19.73;3.33;;;;;;;3.49;100.00;100205.25;4926370;29;20050;-79
2022/01/31 04:51:13;;;;;;;19.95;4.38;;;;;;;3.57;100.00;100194.09;4913853;29;20250;-81
2022/01/31 04:53:41;;;;;;;18.98;4.55;;;;;;;3.64;100.00;100201.22;4948002;28;21543;-81
2022/01/31 04:56:10;;;;;;;24.15;4.45;;;;;;;3.69;100.00;100189.16;4877771;28;20513;-80
2022/01/31 04:58:40;;;;;;;18.92;3.83;;;;;;;3.74;100.00;100195.31;4933678;29;20047;-81
2022/01/31 05:01:09;;;;;;;19.20;3.53;;;;;;;3.77;100.00;100190.19;4914149;28;20559;-80
2022/01/31 05:03:37;;;;;;;18.77;3.63;;;;;;;3.83;100.00;100184.22;4932912;29;20039;-79
2022/01/31 05:06:08;;;;;;;29.17;4.32;;;;;;;3.86;100.00;100182.56;4909141;28;20179;-80
2022/01/31 05:08:38;;;;;;;;;;;;;;;3.86;100.00;100185.16;4914450;29;20043;-80
2022/01/31 05:11:08;;;;;;;18.58;4.65;;;;;;;3.85;100.00;100180.78;4933181;28;20850;-80
2022/01/31 05:13:37;;;;;;;24.67;4.72;;;;;;;3.82;100.00;100178.13;4949276;28;20050;-80
2022/01/31 05:16:05;;;;;;;23.40;3.72;;;;;;;3.80;100.00;100182.44;4891987;28;20050;-79
2022/01/31 05:18:34;;;;;;;26.27;3.70;;;;;;;3.78;100.00;100184.16;4932838;29;20489;-79
2022/01/31 05:21:04;;;;;;;29.50;4.47;;;;;;;3.75;100.00;100186.69;4886516;28;20046;-80
2022/01/31 05:23:34;;;;;;;32.97;5.13;;;;;;;3.75;100.00;100189.28;4917390;29;20063;-79
2022/01/31 05:26:03;;;;;;;23.10;3.80;;;;;;;3.75;100.00;100178.84;4913307;29;20047;-80
2022/01/31 05:28:32;;;;;;;28.63;4.25;;;;;;;3.76;100.00;100178.00;4921310;29;20062;-80
2022/01/31 05:31:00;;;;;;;19.95;3.28;;;;;;;3.76;100.00;100178.00;4929435;29;20050;-80
2022/01/31 05:33:29;;;;;;;35.88;5.97;;;;;;;3.77;100.00;100171.94;4926468;28;20050;-79
2022/01/31 05:35:58;;;;;;;22.35;3.53;;;;;;;3.78;100.00;100158.09;4895797;28;20047;-79
2022/01/31 05:38:27;;;;;;;20.73;3.72;;;;;;;3.80;100.00;100153.78;4932451;29;20054;-80
2022/01/31 05:40:55;;;;;;;24.48;4.10;;;;;;;3.84;100.00;100165.16;4914096;29;20047;-80
2022/01/31 05:43:24;;;;;;;28.13;4.70;;;;;;;3.85;100.00;100157.34;4889818;29;20044;-79
2022/01/31 05:45:53;;;;;;;30.67;4.40;;;;;;;3.87;100.00;100157.38;4928898;28;20516;-80
2022/01/31 05:48:21;;;;;;;22.83;3.92;;;;;;;3.86;100.00;100138.25;4899443;29;20294;-80
2022/01/31 05:50:49;;;;;;;18.13;3.10;;;;;;;3.84;100.00;100137.34;4940767;28;20042;-80
2022/01/31 05:53:18;;;;;;;23.90;3.40;;;;;;;3.82;100.00;100136.44;4938042;28;20740;-80
2022/01/31 05:55:46;;;;;;;19.48;3.35;;;;;;;3.81;100.00;100132.06;4892956;29;20047;-81
2022/01/31 05:58:18;;;;;;;14.25;3.30;;;;;;;3.78;100.00;100134.63;4907960;28;20460;-80
2022/01/31 06:00:46;;;;;;;12.20;3.08;;;;;;;3.77;100.00;100132.00;4942957;28;20039;-81
2022/01/31 06:03:14;;;;;;;11.45;2.35;;;;;;;3.75;100.00;100126.75;4912247;28;20561;-81
2022/01/31 06:05:43;;;;;;;16.58;2.42;;;;;;;3.71;100.00;100115.38;4918435;29;20424;-80
2022/01/31 06:08:12;;;;;;;12.15;2.17;;;;;;;3.70;100.00;100130.97;4885127;28;20250;-81
2022/01/31 06:10:44;;;;;;;23.02;4.75;;;;;;;3.66;100.00;100135.25;4891489;29;20050;-81
2022/01/31 06:13:12;;;;;;;15.00;3.15;;;;;;;3.64;100.00;100131.72;4900299;29;20540;-79
2022/01/31 06:15:41;;;;;;;15.45;2.40;;;;;;;3.62;100.00;100129.97;4916306;28;20050;-81
2022/01/31 06:18:10;;;;;;;21.60;2.88;;;;;;;3.59;100.00;100128.19;4913413;29;20412;-80
2022/01/31 06:20:40;;;;;;;9.43;2.70;;;;;;;3.57;100.00;100131.59;4926152;29;20404;-80
2022/01/31 06:23:08;;;;;;;20.80;3.25;;;;;;;3.55;100.00;100130.69;4913244;28;20579;-79
2022/01/31 06:25:37;;;;;;;13.68;1.98;;;;;;;3.54;100.00;100121.13;4906299;28;24085;-80
2022/01/31 06:28:06;;;;;;;12.18;2.53;;;;;;;3.54;100.00;100118.50;4943901;28;20069;-82
2022/01/31 06:30:36;;;;;;;14.77;2.20;;;;;;;3.56;100.00;100122.03;4906103;29;20256;-81
2022/01/31 06:33:05;;;;;;;13.38;2.17;;;;;;;3.55;100.00;100118.53;4909292;29;20047;-79
2022/01/31 06:35:33;;;;;;;18.25;4.00;;;;;;;3.56;100.00;100111.59;4868502;28;20070;-78
2022/01/31 06:38:02;;;;;;;15.38;3.05;;;;;;;3.55;100.00;100108.09;4927924;28;20088;-77
2022/01/31 06:40:31;;;;;;;19.88;2.72;;;;;;;3.54;100.00;100108.97;4920826;28;20069;-78
2022/01/31 06:42:59;;;;;;;19.30;2.97;;;;;;;3.52;100.00;100105.44;4882781;28;20043;-78
2022/01/31 06:45:27;;;;;;;15.75;3.00;;;;;;;3.50;100.00;100109.75;4927663;28;20043;-79
2022/01/31 06:47:56;;;;;;;18.48;3.20;;;;;;;3.49;100.00;100101.03;4910472;29;20040;-78
2022/01/31 06:50:24;;;;;;;20.05;2.60;;;;;;;3.45;100.00;100104.44;4929726;28;20039;-78
2022/01/31 06:52:55;;;;;;;20.67;2.90;;;;;;;3.42;100.00;100104.41;4924055;28;20452;-78
2022/01/31 06:55:25;;;;;;;14.10;2.65;;;;;;;3.41;100.00;100104.34;4919616;29;20043;-77
2022/01/31 06:57:53;;;;;;;23.38;3.30;;;;;;;3.37;100.00;100110.34;4901457;29;20135;-80
2022/01/31 07:00:22;;;;;;;14.00;2.67;;;;;;;3.34;100.00;100099.88;4890461;29;20044;-78
2022/01/31 07:02:51;;;;;;;17.40;3.00;;;;;;;3.30;100.00;100099.78;4923517;28;20055;-78
2022/01/31 07:05:21;;;;;;;15.55;2.55;;;;;;;3.25;100.00;100105.75;4929114;28;20411;-79
2022/01/31 07:07:49;;;;;;;9.48;2.10;;;;;;;3.23;100.00;100105.75;4906009;28;20555;-79
2022/01/31 07:10:18;;;;;;;13.80;2.55;;;;;;;3.20;100.00;100097.00;4923534;28;20270;-77
2022/01/31 07:12:51;;;;;;;13.52;2.72;;;;;;;3.19;100.00;100098.69;4922348;29;20044;-78
2022/01/31 07:15:20;;;;;;;9.63;2.15;;;;;;;3.20;100.00;100092.66;4908983;28;20048;-79
2022/01/31 07:17:49;;;;;;;23.08;3.13;;;;;;;3.24;100.00;100096.19;4890720;29;20432;-79
2022/01/31 07:20:35;;;;;;;13.07;2.80;;;;;;;3.25;100.00;100098.84;4909782;29;20043;-79
2022/01/31 07:23:17;;;;;;;18.45;3.65;;;;;;;3.29;100.00;100105.88;4902770;29;20031;-78
2022/01/31 07:25:46;;;;;;;12.90;2.53;;;;;;;3.32;100.00;100099.81;4910531;28;20709;-77
2022/01/31 07:28:19;;;;;;;18.67;3.42;;;;;;;3.35;100.00;100094.69;4905216;29;20056;-79
2022/01/31 07:30:50;;;;;;;16.05;2.88;;;;;;;3.39;100.00;100101.72;4919987;28;20244;-79
2022/01/31 07:33:19;;;;;;;21.98;2.88;;;;;;;3.42;100.00;100096.59;4917079;28;20047;-80
2022/01/31 07:35:50;;;;;;;14.52;2.40;;;;;;;3.44;100.00;100102.69;4906492;28;20051;-78
2022/01/31 07:38:19;;;;;;;15.52;2.72;;;;;;;3.47;100.00;100102.75;4904139;29;20044;-77
2022/01/31 07:40:47;;;;;;;18.17;2.80;;;;;;;3.48;100.00;100096.69;4900782;29;20405;-78
2022/01/31 07:43:16;;;;;;;22.27;3.67;;;;;;;3.51;100.00;100099.34;4936752;28;20035;-80
2022/01/31 07:45:45;;;;;;;18.58;2.97;;;;;;;3.56;100.00;100106.41;4925591;28;20074;-78
2022/01/31 07:48:14;;;;;;;12.95;2.70;;;;;;;3.57;100.00;100101.19;4895220;29;20047;-79
2022/01/31 07:50:42;;;;;;;17.70;2.85;;;;;;;3.59;100.00;100096.00;4914751;29;20171;-78
2022/01/31 07:53:11;;;;;;;16.98;2.85;;;;;;;3.61;100.00;100102.13;4902664;29;20036;-80
2022/01/31 07:55:40;;;;;;;27.15;4.30;;;;;;;3.63;100.00;100109.16;4938429;28;20519;-79
2022/01/31 07:58:09;;;;;;;19.00;3.60;;;;;;;3.65;100.00;100109.19;4863516;29;20531;-78
2022/01/31 08:00:46;;;;;;;13.30;2.15;;;;;;;3.67;100.00;100126.59;4922669;28;20046;-79
2022/01/31 08:03:15;;;;;;;21.70;3.38;;;;;;;3.70;100.00;100134.47;4916585;28;20043;-78
2022/01/31 08:05:44;;;;;;;24.30;3.15;;;;;;;3.72;100.00;100137.09;4926095;29;20056;-78
2022/01/31 08:08:15;;;;;;;19.23;2.90;;;;;;;3.75;100.00;100131.09;4900086;28;20050;-79
2022/01/31 08:10:44;;;;;;;18.65;2.60;;;;;;;3.78;100.00;100144.16;4885591;29;20066;-78
2022/01/31 08:13:14;;;;;;;15.98;2.88;;;;;;;3.81;100.00;100146.81;4926683;28;20576;-79
2022/01/31 08:15:48;;;;;;;16.45;2.83;;;;;;;3.84;100.00;100147.78;4929060;29;20039;-78
2022/01/31 08:18:17;;;;;;;25.70;2.65;;;;;;;3.87;100.00;100145.19;4886908;28;20055;-80
2022/01/31 08:20:46;;;;;;;16.55;3.05;;;;;;;3.91;100.00;100161.78;4922700;29;20050;-78
2022/01/31 08:23:14;;;;;;;25.02;3.13;;;;;;;3.94;100.00;100151.44;4883515;29;20036;-79
2022/01/31 08:25:48;;;;;;;15.60;2.55;;;;;;;3.96;100.00;100159.28;4912002;29;20039;-79
2022/01/31 08:28:20;;;;;;;13.05;2.25;;;;;;;3.99;100.00;100164.53;4903784;28;20466;-80
2022/01/31 08:31:01;;;;;;;16.42;3.65;;;;;;;4.02;100.00;100154.19;4933844;28;20425;-77
2022/01/31 08:33:46;;;;;;;26.10;3.05;;;;;;;4.06;100.00;100166.41;4927278;28;20089;-77
2022/01/31 08:36:15;;;;;;;17.23;3.75;;;;;;;4.07;100.00;100168.19;4884722;29;20066;-79
2022/01/31 08:38:45;;;;;;;23.75;2.67;;;;;;;4.12;100.00;100174.38;4905651;28;20035;-78
2022/01/31 08:41:15;;;;;;;14.57;2.67;;;;;;;4.18;100.00;100182.31;4922845;28;20047;-81
2022/01/31 08:43:45;;;;;;;12.90;2.50;;;;;;;4.21;100.00;100179.72;4942680;28;21018;-78
2022/01/31 08:46:14;;;;;;;14.98;3.00;;;;;;;4.24;100.00;100178.94;4927422;28;20048;-80
2022/01/31 08:48:43;;;;;;;23.10;3.15;;;;;;;4.28;100.00;100191.16;4918945;29;20043;-78
2022/01/31 08:51:12;;;;;;;19.02;2.55;;;;;;;4.31;100.00;100188.63;4926372;28;20058;-79
2022/01/31 08:53:41;;;;;;;14.52;2.47;;;;;;;4.36;100.00;100196.50;4881557;29;20055;-78
2022/01/31 08:56:13;;;;;;;13.77;2.40;;;;;;;4.39;100.00;100201.81;4858777;28;20046;-79
2022/01/31 08:58:47;;;;;;;17.23;2.95;;;;;;;4.42;100.00;100194.00;4893561;28;20047;-78
2022/01/31 09:01:20;;;;;;;23.75;2.50;;;;;;;4.45;100.00;100199.28;4887896;28;21499;-79
2022/01/31 09:06:25;;;;;;;15.52;2.17;;;;;;;4.50;100.00;100205.47;4913773;28;20055;-79
2022/01/31 09:08:54;;;;;;;17.13;2.92;;;;;;;4.54;100.00;100209.00;4914804;29;20032;-77
2022/01/31 09:11:22;;;;;;;22.27;3.83;;;;;;;4.58;100.00;100219.53;4872983;28;20132;-78
2022/01/31 09:13:52;;;;;;;15.70;2.75;;;;;;;4.63;100.00;100222.19;4915784;29;20051;-78
2022/01/31 09:16:21;;;;;;;15.50;2.60;;;;;;;4.67;100.00;100218.81;4934739;28;20226;-78
2022/01/31 09:18:53;;;;;;;10.60;2.05;;;;;;;4.74;100.00;100222.41;4923278;29;20043;-80
2022/01/31 09:21:21;;;;;;;14.85;2.35;;;;;;;4.81;100.00;100232.09;4929029;28;20246;-80
2022/01/31 09:23:51;;;;;;;13.90;2.30;;;;;;;4.88;100.00;100236.56;4888787;29;20047;-80
2022/01/31 09:26:23;;;;;;;18.98;3.00;;;;;;;4.94;100.00;100241.00;4871409;28;20043;-82
2022/01/31 09:28:52;;;;;;;20.98;2.97;;;;;;;5.01;100.00;100248.97;4926509;28;20046;-80
2022/01/31 09:31:21;;;;;;;16.17;2.33;;;;;;;5.07;100.00;100254.28;4924611;29;20533;-81
2022/01/31 09:33:50;;;;;;;18.03;2.80;;;;;;;5.07;100.00;100254.28;4920282;29;20048;-80
2022/01/31 09:36:19;;;;;;;13.70;2.10;;;;;;;5.11;100.00;100262.19;4912795;28;20611;-79
2022/01/31 09:38:47;;;;;;;8.63;2.20;;;;;;;5.10;100.00;100269.13;4935457;28;20066;-81
2022/01/31 09:41:21;;;;;;;13.35;2.28;;;;;;;5.11;100.00;100276.09;4896440;28;20058;-81
2022/01/31 09:44:01;;;;;;;7.97;2.15;;;;;;;5.13;100.00;100281.38;4907018;29;20039;-80
2022/01/31 09:49:02;;;;;;;7.82;1.80;;;;;;;5.22;100.00;100286.75;4911565;29;20039;-81
2022/01/31 09:51:32;;;;;;;5.15;1.70;;;;;;;5.23;100.00;100289.34;4881925;29;20058;-81
2022/01/31 09:54:03;;;;;;;7.25;1.33;;;;;;;5.27;100.00;100295.50;4921155;29;20039;-83
2022/01/31 09:56:37;;;;;;;3.88;1.20;;;;;;;5.32;100.00;100299.06;4919930;29;20460;-81
2022/01/31 09:59:08;;;;;;;5.45;1.58;;;;;;;5.37;100.00;100302.66;4895037;29;20374;-83
2022/01/31 10:01:49;;;;;;;;;;;;;;;5.42;100.00;100313.16;4928727;29;20270;-83
2022/01/31 10:04:22;;;;;;;11.77;1.80;;;;;;;5.47;100.00;100311.50;4899413;28;19922;-82
2022/01/31 10:06:56;;;;;;;11.63;1.83;;;;;;;5.53;100.00;100329.00;4918321;29;20401;-83
2022/01/31 10:09:30;;;;;;;13.85;2.47;;;;;;;5.61;100.00;100340.47;4938063;28;20371;-82
2022/01/31 10:16:25;;;;;;;9.18;1.88;;;;;;;5.68;100.00;100344.94;4942709;28;20050;-83
2022/01/31 10:17:59;;;;;;;12.43;2.08;;;;;;;5.78;100.00;100351.16;4901155;28;20415;-84
2022/01/31 10:20:33;;;;;;;8.98;2.33;;;;;;;5.82;100.00;100356.47;4930902;28;20355;-82
2022/01/31 10:23:12;;;;;;;11.65;2.38;;;;;;;5.89;100.00;100351.34;4918384;28;20520;-81
2022/01/31 10:25:44;;;;;;;10.80;1.92;;;;;;;5.95;100.00;100364.47;4918387;28;20084;-82
2022/01/31 10:28:17;;;;;;;12.48;2.13;;;;;;;5.98;100.00;100357.59;4870520;29;20039;-82
2022/01/31 10:30:50;;;;;;;15.88;2.97;;;;;;;6.04;100.00;100356.81;4908685;29;20155;-82
2022/01/31 10:33:22;;;;;;;9.93;2.28;;;;;;;6.06;100.00;100357.69;4890080;29;20061;-81
2022/01/31 10:35:50;;;;;;;9.13;2.15;;;;;;;6.09;100.00;100357.75;4886439;29;20048;-81
2022/01/31 10:38:30;;;;;;;12.40;2.20;;;;;;;6.13;100.00;100370.00;4901837;29;20691;-80
2022/01/31 10:52:08;;;;;;;9.95;2.88;;;;;;;6.38;100.00;100388.66;4899120;29;20049;-82
2022/01/31 10:54:40;;;;;;;19.45;3.13;;;;;;;6.41;100.00;100392.19;4892278;29;20666;-82
2022/01/31 10:57:22;;;;;;;15.55;3.63;;;;;;;6.41;100.00;100405.28;4860788;29;20544;-81
2022/01/31 11:00:00;;;;;;;21.92;2.65;;;;;;;6.42;100.00;100401.78;4888195;29;20059;-81
2022/01/31 11:02:28;;;;;;;16.10;3.30;;;;;;;6.46;100.00;100404.44;4884165;29;20541;-83
2022/01/31 11:04:58;;;;;;;18.40;3.78;;;;;;;6.50;100.00;100419.34;4903326;29;20059;-79
2022/01/31 11:07:29;;;;;;;19.95;3.35;;;;;;;6.54;100.00;100415.88;4873981;29;20055;-80
2022/01/31 11:09:58;;;;;;;13.48;3.08;;;;;;;6.56;100.00;100422.94;4872409;29;20083;-81
2022/01/31 11:12:27;;;;;;;18.45;2.80;;;;;;;6.59;100.00;100428.19;4895806;29;20052;-80
2022/01/31 11:14:56;;;;;;;17.63;3.60;;;;;;;6.61;100.00;100421.22;4848361;29;20048;-78
2022/01/31 11:17:26;;;;;;;22.33;4.35;;;;;;;6.69;100.00;100425.69;4867456;29;20139;-79
2022/01/31 11:19:57;;;;;;;13.30;2.92;;;;;;;6.75;100.00;100441.50;4851368;29;20056;-80
2022/01/31 11:22:35;;;;;;;15.95;3.47;;;;;;;6.82;100.00;100443.28;4894030;29;20052;-82
2022/01/31 11:25:22;;;;;;;21.10;3.80;;;;;;;6.88;100.00;100458.19;4931670;28;20500;-80
2022/01/31 11:27:54;;;;;;;16.38;3.20;;;;;;;6.95;100.00;100453.06;4930338;28;20507;-80
2022/01/31 11:30:22;;;;;;;18.75;3.50;;;;;;;7.00;100.00;100468.84;4925964;28;20051;-81
2022/01/31 11:32:52;;;;;;;26.38;3.88;;;;;;;7.00;100.00;100461.00;4921353;29;20439;-81
2022/01/31 11:35:22;;;;;;;16.83;3.72;;;;;;;7.00;100.00;100469.72;4913464;29;20055;-82
2022/01/31 11:37:52;;;;;;;18.15;3.83;;;;;;;6.99;100.00;100473.22;4926720;29;20054;-82
2022/01/31 11:40:21;;;;;;;22.30;3.22;;;;;;;7.01;100.00;100467.97;4916901;29;20046;-81
2022/01/31 11:42:52;;;;;;;23.05;3.40;;;;;;;7.05;100.00;100477.66;4923039;29;20048;-82
2022/01/31 11:45:28;;;;;;;14.90;2.92;;;;;;;7.10;100.00;100488.16;4911317;29;20052;-82
2022/01/31 11:48:02;;;;;;;18.88;3.97;;;;;;;7.17;100.00;100495.25;4922368;28;23079;-83
2022/01/31 11:50:40;;;;;;;18.95;4.05;;;;;;;7.18;100.00;100502.22;4941243;28;20047;-82
2022/01/31 11:53:09;;;;;;;17.23;3.55;;;;;;;7.16;100.00;100509.19;4934584;28;20046;-81
2022/01/31 11:55:38;;;;;;;20.55;4.47;;;;;;;7.15;100.00;100502.22;4891914;28;20055;-82